Gillette, WY

12:46 PM MDT on July 24, 2014 (GMT -0600)
South Gillette, Swanson Road (KWYGILLE8) Elev 4580 ft | 44.24 °N, 105.48 °W | Change Station

Current weather conditions updated 3 seconds ago

Clear
Clear
97.9 °F
Feels Like 93 °F
N
24.4
Wind Variable Wind from SW
Gusts 29.8 mph

Today is forecast to be Warmer than yesterday.

Today
High -- | Low -- °F
--% Chance of Precip.
Yesterday
High -- | Low -- °F
Precip. -- in
5:40 AM 8:35 PM
Waning Crescent, 4% visible
Pressure 29.66 in
Visibility 10.0 miles
Clouds Clear
Heat Index 93 °F
Dew Point 32 °F
Humidity 10%
Rainfall 0.00 in
Snow Depth Not available.
UV 10 out of 12
Pollen 6.70 out of 12
Air Quality Not available.
Flu Activity Not available.
METAR KGCC 241753Z AUTO 28014G24KT 10SM CLR 37/07 A2986 RMK AO2 SLP043 T03670072 10367 20250 57009

More Conditions Fewer Conditions

Pressure 29.66 in
Visibility 10.0 miles
Clouds Clear
Heat Index 93 °F
Dew Point 32 °F
Humidity 10%
Rainfall 0.00 in
Snow Depth Not available.
UV 10 out of 12
Pollen 6.70 out of 12
Air Quality Not available.
Flu Activity Not available.
METAR KGCC 241753Z AUTO 28014G24KT 10SM CLR 37/07 A2986 RMK AO2 SLP043 T03670072 10367 20250 57009

More Conditions Fewer Conditions

10-Day Weather Forecast

Almanac

Astronomy

Jul. 24, 2014 Rise Set
Actual Time 5:40 AM MDT 8:35 PM MDT
Civil Twilight 5:06 AM MDT 9:09 PM MDT
Nautical Twilight 4:23 AM MDT 9:52 PM MDT
Astronomical Twilight 3:32 AM MDT 10:43 PM MDT
Moon 3:52 AM MDT 6:51 PM MDT
Length of Visible Light 16h 02m
Length of Day
14h 54m
Tomorrow will be 2m 3s shorter.
Waning Crescent, 4% of the Moon is Illuminated
Today
Waning Crescent
Jul 26
New
Aug 3
First Quarter
Aug 10
Full
Aug 17
Last Quarter

Today's Extremes

State Highs State Lows

Community

WunderPhotos

Upload Photos

1,737,091 photos uploaded!

Nearby

Snow Depth

Station Depth Elevation
Grave Springs 0 in 8550 ft
Casper Mountain 0 in 7850 ft
Townsend Creek 1 in 8700 ft
Crow Creek 0 in 8330 ft
Big Sandy Opening 0 in 9080 ft

Earthquake Activity

City Distance Mag. Time & Date
No recent earthquake activity has been reported nearby.
Minimum magnitude displayed is 2.5.

Coastal Water Temperatures

Place Temperature
No Stations Reporting

Nearby Weather Stations

Station Location Temp. Heat Index Dew Point Humidity Wind Precip. Elev Updated Type
South Gillette, Swanson Road, Gillette, WY 97.9 °F 93 °F 32 °F 10% SW  at  24.4 mph 0.00 in / hr 4580 ft 12:46 PM MDT Rapid Fire
Crestview, Gillette, WY 99.1 °F 94 °F 36 °F 11% WNW  at  13.5 mph 0.00 in / hr 4685 ft 12:46 PM MDT Rapid Fire
UNION CHAPEL FAIRVIEW, GILLETTE, WY 96.7 °F 93 °F 45 °F 17% West  at  20.0 mph - / hr 4593 ft 12:39 PM MDT Normal
South Gillette, HWY 50, Gillette, WY 95.3 °F 91 °F 44 °F 17% NW  at  28.0 mph 0.00 in / hr 4840 ft 12:37 PM MDT Normal
RAWS ECHETA WY, Gillette, WY 99 °F 94 °F 40 °F 13% SW  at  21 mph 0.00 in / hr 4396 ft 11:51 AM MDT MADIS

Show More Stations Show Fewer Stations